Time;durP1;ratioP1;P1;durP2;ratioP2;P2;SDS_P1;SDS_P2;PMS_P1;PMS_P2;Temp;Humidity;BMP_temperature;BMP_pressure;BME280_temperature;BME280_humidity;BME280_pressure;Samples;Min_cycle;Max_cycle;Signal;HPM_P1;HPM_P2
2023/03/09 00:01:49;;;;;;;53.83;26.23;;;;;;;-0.05;100.00;98916.25;5296173;28;20036;-65
2023/03/09 00:04:21;;;;;;;54.75;25.77;;;;;;;-0.02;100.00;98900.28;5292247;28;20040;-65
2023/03/09 00:06:52;;;;;;;53.88;25.80;;;;;;;0.03;100.00;98890.38;5295986;28;20028;-65
2023/03/09 00:09:23;;;;;;;57.22;27.02;;;;;;;0.02;100.00;98886.09;5286694;28;20032;-64
2023/03/09 00:11:55;;;;;;;56.45;27.63;;;;;;;0.01;100.00;98887.00;5287417;28;20442;-65
2023/03/09 00:14:26;;;;;;;54.05;26.58;;;;;;;0.05;100.00;98900.75;5282394;28;20358;-64
2023/03/09 00:16:57;;;;;;;54.10;25.50;;;;;;;-0.02;100.00;98882.81;5285470;28;20024;-64
2023/03/09 00:19:30;;;;;;;51.08;25.85;;;;;;;0.07;100.00;98856.94;5283579;28;20365;-64
2023/03/09 00:22:02;;;;;;;48.50;24.95;;;;;;;0.00;100.00;98887.97;5285563;28;20621;-65
2023/03/09 00:24:33;;;;;;;50.38;24.48;;;;;;;-0.04;100.00;98903.03;5282817;28;20148;-64
2023/03/09 00:27:04;;;;;;;50.88;25.10;;;;;;;-0.01;100.00;98918.56;5288248;28;20556;-64
2023/03/09 00:29:35;;;;;;;55.33;26.20;;;;;;;0.01;100.00;98930.75;5280233;28;20028;-65
2023/03/09 00:32:07;;;;;;;54.28;26.45;;;;;;;0.01;100.00;98936.81;5285273;28;20043;-64
2023/03/09 00:34:38;;;;;;;56.38;27.30;;;;;;;0.06;100.00;98937.38;5284547;28;20383;-64
2023/03/09 00:37:10;;;;;;;59.58;27.73;;;;;;;0.04;100.00;98944.50;5286420;28;20024;-64
2023/03/09 00:39:41;;;;;;;56.33;27.85;;;;;;;0.01;100.00;98949.94;5282338;28;20031;-64
2023/03/09 00:42:13;;;;;;;57.53;27.20;;;;;;;0.04;100.00;98941.88;5286968;28;20111;-64
2023/03/09 00:44:46;;;;;;;58.17;27.33;;;;;;;0.10;100.00;98951.97;5284007;28;20304;-64
2023/03/09 00:47:18;;;;;;;57.20;26.90;;;;;;;0.04;100.00;98956.75;5288064;28;20039;-64
2023/03/09 00:49:50;;;;;;;56.95;26.98;;;;;;;0.01;100.00;98955.16;5288964;28;20127;-64
2023/03/09 00:52:21;;;;;;;56.28;26.17;;;;;;;0.01;100.00;98960.41;5279884;28;20077;-64
2023/03/09 00:54:53;;;;;;;52.60;26.65;;;;;;;-0.01;100.00;98959.66;5284074;28;20089;-64
2023/03/09 00:57:25;;;;;;;51.47;26.08;;;;;;;0.02;100.00;98961.25;5279212;28;20511;-65
2023/03/09 00:59:56;;;;;;;58.35;27.35;;;;;;;0.04;100.00;98975.09;5282626;28;20031;-64
2023/03/09 01:02:27;;;;;;;50.67;26.70;;;;;;;0.01;100.00;98980.56;5284565;28;20338;-64
2023/03/09 01:04:59;;;;;;;55.80;26.38;;;;;;;0.05;100.00;98979.41;5280007;28;20075;-64
2023/03/09 01:07:32;;;;;;;57.85;26.80;;;;;;;0.05;100.00;98993.34;5283676;28;20063;-64
2023/03/09 01:10:04;;;;;;;53.40;25.75;;;;;;;0.03;100.00;98997.03;5283906;28;20044;-64
2023/03/09 01:12:40;;;;;;;53.15;25.67;;;;;;;0.05;100.00;99030.06;5284291;28;20032;-64
2023/03/09 01:15:12;;;;;;;51.92;26.10;;;;;;;0.08;100.00;99048.25;5285905;28;20031;-64
2023/03/09 01:17:43;;;;;;;50.30;25.70;;;;;;;0.03;100.00;99045.06;5283384;28;20040;-64
2023/03/09 01:20:14;;;;;;;53.03;25.17;;;;;;;0.08;100.00;99014.16;5282380;28;20028;-64
2023/03/09 01:22:46;;;;;;;53.40;25.15;;;;;;;0.07;100.00;99015.06;5287681;28;20043;-64
2023/03/09 01:25:17;;;;;;;55.75;26.85;;;;;;;0.12;100.00;99020.88;5278015;28;20510;-64
2023/03/09 01:27:50;;;;;;;54.90;25.63;;;;;;;0.08;100.00;99032.50;5283322;28;20123;-64
2023/03/09 01:30:21;;;;;;;55.28;25.80;;;;;;;0.15;100.00;99043.44;5281790;28;20479;-64
2023/03/09 01:32:53;;;;;;;55.30;26.42;;;;;;;0.10;100.00;99054.22;5285718;28;20051;-65
2023/03/09 01:35:24;;;;;;;57.85;27.25;;;;;;;0.08;100.00;99063.97;5282760;28;20028;-65
2023/03/09 01:37:56;;;;;;;57.13;26.55;;;;;;;0.14;100.00;99060.97;5280636;28;20052;-65
2023/03/09 01:40:27;;;;;;;55.30;25.92;;;;;;;0.23;100.00;99058.69;5280020;28;20846;-65
2023/03/09 01:43:01;;;;;;;57.10;26.05;;;;;;;0.29;100.00;99063.53;5285605;28;20123;-65
2023/03/09 01:45:32;;;;;;;57.33;27.00;;;;;;;0.19;100.00;99058.03;5283002;28;20086;-65
2023/03/09 01:48:04;;;;;;;60.42;26.95;;;;;;;0.22;100.00;99055.25;5284758;28;20114;-64
2023/03/09 01:50:35;;;;;;;57.67;25.50;;;;;;;0.23;100.00;99062.19;5287635;28;20027;-65
2023/03/09 01:53:17;;;;;;;56.75;26.80;;;;;;;0.23;100.00;99069.19;5284574;28;20407;-65
2023/03/09 01:55:52;;;;;;;54.28;26.88;;;;;;;0.32;100.00;99073.84;5281056;28;20031;-65
2023/03/09 01:58:27;;;;;;;56.50;26.30;;;;;;;0.30;100.00;99078.38;5284750;28;20050;-65
2023/03/09 02:00:58;;;;;;;;;;;;;;;0.32;100.00;99073.84;5280416;28;20034;-65
2023/03/09 02:03:36;;;;;;;55.95;26.45;;;;;;;0.39;100.00;99085.66;5281791;28;21592;-65
2023/03/09 02:06:17;;;;;;;58.95;27.92;;;;;;;0.28;100.00;99095.97;5283278;28;20424;-65
2023/03/09 02:08:58;;;;;;;63.22;28.80;;;;;;;0.40;100.00;99095.19;5280650;28;20051;-65
2023/03/09 02:11:29;;;;;;;60.67;28.00;;;;;;;0.31;100.00;99104.50;5284486;28;20083;-65
2023/03/09 02:14:01;;;;;;;56.08;26.95;;;;;;;0.29;100.00;99101.13;5284655;28;20178;-65
2023/03/09 02:16:32;;;;;;;57.22;27.17;;;;;;;0.38;100.00;99094.44;5283862;28;20029;-65
2023/03/09 02:19:07;;;;;;;75.18;30.77;;;;;;;0.32;100.00;99082.56;5281941;28;20032;-65
2023/03/09 02:21:52;;;;;;;63.85;29.60;;;;;;;0.35;100.00;99078.94;5284155;28;20028;-65
2023/03/09 02:24:50;;;;;;;65.70;30.83;;;;;;;0.37;100.00;99084.91;5279973;28;20050;-65
2023/03/09 02:27:24;;;;;;;62.80;28.35;;;;;;;0.42;100.00;99085.44;5284126;28;20032;-65
2023/03/09 02:29:56;;;;;;;69.43;30.48;;;;;;;0.42;100.00;99084.63;5282230;28;20027;-65
2023/03/09 02:32:31;;;;;;;65.55;28.98;;;;;;;0.45;100.00;99095.75;5282205;28;20806;-65
2023/03/09 02:35:03;;;;;;;63.70;29.67;;;;;;;0.36;100.00;99098.97;5284604;28;20064;-65
2023/03/09 02:37:37;;;;;;;64.55;29.45;;;;;;;0.31;100.00;99114.16;5285317;28;20036;-65
2023/03/09 02:40:14;;;;;;;63.53;29.63;;;;;;;0.25;100.00;99117.13;5284788;28;20143;-65
2023/03/09 02:42:47;;;;;;;60.53;30.00;;;;;;;0.23;100.00;99126.88;5281317;28;20031;-65
2023/03/09 02:45:21;;;;;;;64.20;29.17;;;;;;;0.22;100.00;99117.34;5281471;28;20040;-65
2023/03/09 02:47:54;;;;;;;66.05;29.65;;;;;;;0.22;100.00;99115.56;5283955;28;20055;-64
2023/03/09 02:50:26;;;;;;;63.38;29.67;;;;;;;0.30;100.00;99112.47;5280342;28;20123;-64
2023/03/09 02:52:57;;;;;;;64.00;29.25;;;;;;;0.29;100.00;99121.25;5281329;28;20386;-64
2023/03/09 02:55:28;;;;;;;69.30;30.38;;;;;;;0.36;100.00;99128.66;5284706;28;20105;-64
2023/03/09 02:58:00;;;;;;;64.80;29.48;;;;;;;0.36;100.00;99131.28;5282036;28;20035;-64
2023/03/09 03:00:31;;;;;;;63.55;28.80;;;;;;;0.35;100.00;99116.47;5283003;28;20410;-64
2023/03/09 03:03:02;;;;;;;62.53;27.40;;;;;;;0.32;100.00;99111.41;5280335;28;20046;-64
2023/03/09 03:05:33;;;;;;;62.03;28.67;;;;;;;0.29;100.00;99111.63;5281644;28;20032;-64
2023/03/09 03:08:05;;;;;;;66.82;29.92;;;;;;;0.27;100.00;99117.88;5283432;28;20034;-64
2023/03/09 03:10:36;;;;;;;65.78;29.58;;;;;;;0.28;100.00;99125.66;5281145;28;20069;-64
2023/03/09 03:13:08;;;;;;;62.47;28.02;;;;;;;0.21;100.00;99118.28;5279132;28;20055;-64
2023/03/09 03:15:39;;;;;;;59.75;29.17;;;;;;;0.24;100.00;99118.94;5281980;28;20025;-64
2023/03/09 03:18:10;;;;;;;64.13;27.90;;;;;;;0.25;100.00;99118.00;5283754;28;20044;-64
2023/03/09 03:20:41;;;;;;;66.28;29.00;;;;;;;0.26;100.00;99126.72;5279473;28;20024;-64
2023/03/09 03:23:13;;;;;;;62.38;28.00;;;;;;;0.23;100.00;99121.63;5279350;28;20036;-64
2023/03/09 03:25:44;;;;;;;67.40;31.20;;;;;;;0.22;100.00;99130.47;5282717;28;20048;-64
2023/03/09 03:28:15;;;;;;;68.70;30.02;;;;;;;0.27;100.00;99144.13;5276629;28;20108;-64
2023/03/09 03:30:51;;;;;;;65.22;28.75;;;;;;;0.22;100.00;99133.09;5280978;28;20043;-64
2023/03/09 03:33:22;;;;;;;67.32;31.73;;;;;;;0.19;100.00;99160.31;5283911;28;20032;-64
2023/03/09 03:35:54;;;;;;;72.40;31.05;;;;;;;0.22;100.00;99170.63;5282782;28;20031;-64
2023/03/09 03:38:25;;;;;;;68.78;29.88;;;;;;;0.26;100.00;99189.66;5280674;28;20534;-64
2023/03/09 03:40:56;;;;;;;73.40;32.38;;;;;;;0.24;100.00;99202.84;5275473;28;20723;-64
2023/03/09 03:43:28;;;;;;;70.10;31.40;;;;;;;0.42;100.00;99194.81;5283070;28;20097;-64
2023/03/09 03:45:59;;;;;;;78.63;33.97;;;;;;;0.33;100.00;99194.44;5282287;28;20430;-64
2023/03/09 03:48:30;;;;;;;71.20;31.90;;;;;;;0.37;100.00;99205.59;5280699;28;20569;-64
2023/03/09 03:51:02;;;;;;;72.22;32.17;;;;;;;0.36;100.00;99207.34;5276408;28;20039;-64
2023/03/09 03:53:33;;;;;;;70.90;32.75;;;;;;;0.33;100.00;99193.59;5280237;28;20051;-64
2023/03/09 03:56:04;;;;;;;73.75;31.73;;;;;;;0.37;100.00;99189.84;5279423;28;20032;-64
2023/03/09 03:58:36;;;;;;;72.28;33.05;;;;;;;0.35;100.00;99204.84;5279748;28;20060;-64
2023/03/09 04:01:07;;;;;;;71.65;33.05;;;;;;;0.39;100.00;99204.53;5281769;28;20393;-64
2023/03/09 04:03:38;;;;;;;74.75;33.03;;;;;;;0.34;100.00;99203.13;5280263;28;20111;-64
2023/03/09 04:06:10;;;;;;;75.78;32.00;;;;;;;0.32;100.00;99203.22;5282886;28;20061;-64
2023/03/09 04:08:41;;;;;;;70.95;33.03;;;;;;;0.39;100.00;99209.78;5281425;28;20083;-64
2023/03/09 04:11:12;;;;;;;78.25;33.03;;;;;;;0.33;100.00;99201.47;5278903;28;20489;-64
2023/03/09 04:13:47;;;;;;;74.63;33.50;;;;;;;0.34;100.00;99213.63;5276763;28;20022;-64
2023/03/09 04:16:19;;;;;;;73.88;32.95;;;;;;;0.41;100.00;99219.38;5280109;28;20024;-64
2023/03/09 04:18:50;;;;;;;75.35;33.97;;;;;;;0.39;100.00;99228.16;5286100;28;20028;-64
2023/03/09 04:21:21;;;;;;;79.43;35.00;;;;;;;0.44;100.00;99230.53;5283825;28;20417;-64
2023/03/09 04:23:52;;;;;;;82.95;36.28;;;;;;;0.38;100.00;99229.13;5282506;28;20456;-64
2023/03/09 04:26:24;;;;;;;80.30;36.20;;;;;;;0.41;100.00;99232.47;5281605;28;20059;-64
2023/03/09 04:28:55;;;;;;;79.57;36.13;;;;;;;0.40;100.00;99239.50;5290749;28;20034;-64
2023/03/09 04:31:26;;;;;;;75.72;32.70;;;;;;;0.37;100.00;99234.44;5285919;28;20027;-64
2023/03/09 04:33:57;;;;;;;84.22;37.08;;;;;;;0.45;100.00;99236.59;5285633;28;20032;-64
2023/03/09 04:36:30;;;;;;;77.55;34.17;;;;;;;0.44;100.00;99248.88;5287615;28;20052;-64
2023/03/09 04:39:02;;;;;;;78.25;34.85;;;;;;;0.37;100.00;99243.16;5281982;28;20032;-64
2023/03/09 04:41:33;;;;;;;84.70;36.58;;;;;;;0.41;100.00;99248.22;5285368;28;20046;-64
2023/03/09 04:44:05;;;;;;;86.47;36.75;;;;;;;0.37;100.00;99252.81;5288431;28;20050;-64
2023/03/09 04:46:36;;;;;;;84.20;37.42;;;;;;;0.33;100.00;99265.25;5282874;28;20599;-64
2023/03/09 04:49:07;;;;;;;82.93;36.03;;;;;;;0.37;100.00;99258.06;5277788;28;20115;-64
2023/03/09 04:51:39;;;;;;;85.15;36.00;;;;;;;0.36;100.00;99259.81;5284966;28;20057;-64
2023/03/09 04:54:10;;;;;;;83.65;35.75;;;;;;;0.35;100.00;99266.00;5296893;28;20035;-64
2023/03/09 04:56:41;;;;;;;86.13;37.45;;;;;;;0.29;100.00;99269.00;5282754;28;20032;-64
2023/03/09 04:59:12;;;;;;;84.75;36.20;;;;;;;0.31;100.00;99268.91;5282565;28;20399;-64
2023/03/09 05:01:44;;;;;;;88.18;37.08;;;;;;;0.27;100.00;99273.50;5288493;28;20024;-64
2023/03/09 05:04:15;;;;;;;88.55;37.85;;;;;;;0.28;100.00;99271.72;5284465;28;20090;-64
2023/03/09 05:06:47;;;;;;;92.63;37.65;;;;;;;0.26;100.00;99281.47;5288507;28;20060;-67
2023/03/09 05:09:18;;;;;;;85.78;36.88;;;;;;;0.31;100.00;99275.00;5288783;28;20143;-64
2023/03/09 05:11:51;;;;;;;92.03;39.22;;;;;;;0.33;100.00;99285.41;5288597;28;20051;-64
2023/03/09 05:14:23;;;;;;;88.70;39.03;;;;;;;0.29;100.00;99295.25;5285210;28;20024;-64
2023/03/09 05:16:54;;;;;;;102.00;40.08;;;;;;;0.29;100.00;99304.88;5290799;28;20024;-74
2023/03/09 05:19:25;;;;;;;99.13;40.42;;;;;;;0.29;100.00;99313.59;5284465;28;20441;-70
2023/03/09 05:21:57;;;;;;;100.03;41.45;;;;;;;0.34;100.00;99326.44;5285579;28;20101;-71
2023/03/09 05:24:29;;;;;;;97.65;41.15;;;;;;;0.28;100.00;99330.25;5289037;28;20028;-71
2023/03/09 05:27:00;;;;;;;99.88;40.75;;;;;;;0.38;100.00;99325.31;5286778;28;20073;-71
2023/03/09 05:29:31;;;;;;;108.97;41.63;;;;;;;0.36;100.00;99322.78;5285990;28;20028;-67
2023/03/09 05:32:03;;;;;;;103.82;42.78;;;;;;;0.35;100.00;99309.78;5286745;28;20391;-66
2023/03/09 05:34:34;;;;;;;104.72;42.10;;;;;;;0.42;100.00;99308.44;5289817;28;20126;-74
2023/03/09 05:37:06;;;;;;;97.35;41.13;;;;;;;0.43;100.00;99325.91;5286639;28;20123;-74
2023/03/09 05:39:37;;;;;;;103.55;43.22;;;;;;;0.42;100.00;99326.81;5286811;28;20032;-73
2023/03/09 05:42:08;;;;;;;102.25;43.08;;;;;;;0.48;100.00;99329.09;5292551;28;20114;-74
2023/03/09 05:44:40;;;;;;;114.82;46.08;;;;;;;0.48;100.00;99318.59;5290642;28;20028;-73
2023/03/09 05:47:11;;;;;;;108.45;44.28;;;;;;;0.62;100.00;99311.69;5285712;28;20032;-74
2023/03/09 05:49:42;;;;;;;111.40;44.88;;;;;;;0.48;100.00;99315.13;5289849;28;20500;-74
2023/03/09 05:52:14;;;;;;;110.95;44.78;;;;;;;0.54;100.00;99313.00;5283556;28;20036;-74
2023/03/09 05:54:45;;;;;;;120.30;46.78;;;;;;;0.47;100.00;99319.53;5282393;28;20398;-74
2023/03/09 05:57:16;;;;;;;105.32;43.45;;;;;;;0.59;100.00;99328.44;5286425;28;21563;-74
2023/03/09 05:59:48;;;;;;;98.82;43.15;;;;;;;0.51;100.00;99338.56;5284892;28;20031;-74
2023/03/09 06:02:19;;;;;;;102.97;44.60;;;;;;;0.59;100.00;99341.56;5292465;28;20038;-74
2023/03/09 06:04:51;;;;;;;104.20;45.05;;;;;;;0.56;100.00;99342.59;5285889;28;20109;-73
2023/03/09 06:07:23;;;;;;;113.55;46.40;;;;;;;0.57;100.00;99343.44;5287711;28;20028;-74
2023/03/09 06:09:54;;;;;;;108.93;43.60;;;;;;;0.58;100.00;99351.22;5284539;28;20497;-73
2023/03/09 06:12:27;;;;;;;111.93;44.92;;;;;;;0.57;100.00;99343.44;5286418;28;20043;-74
2023/03/09 06:14:58;;;;;;;114.10;44.08;;;;;;;0.60;100.00;99339.81;5286688;28;20032;-74
2023/03/09 06:17:29;;;;;;;101.28;43.03;;;;;;;0.58;100.00;99345.97;5283308;28;20045;-74
2023/03/09 06:20:02;;;;;;;97.93;41.83;;;;;;;0.60;100.00;99361.63;5290184;28;20069;-74
2023/03/09 06:22:33;;;;;;;97.93;42.90;;;;;;;0.60;100.00;99361.63;5288363;28;20493;-74
2023/03/09 06:25:05;;;;;;;106.25;44.20;;;;;;;0.64;100.00;99365.78;5298673;28;20053;-74
2023/03/09 06:27:37;;;;;;;99.13;42.92;;;;;;;0.57;100.00;99369.69;5295470;28;20546;-74
2023/03/09 06:30:09;;;;;;;98.82;41.90;;;;;;;0.71;100.00;99368.84;5286428;28;20027;-74
2023/03/09 06:32:40;;;;;;;102.10;42.80;;;;;;;0.69;100.00;99376.84;5292628;28;20032;-74
2023/03/09 06:35:11;;;;;;;99.95;43.05;;;;;;;0.84;100.00;99379.47;5283439;28;20031;-74
2023/03/09 06:37:43;;;;;;;107.05;44.42;;;;;;;0.69;100.00;99370.72;5293512;28;20033;-74
2023/03/09 06:40:15;;;;;;;92.80;42.30;;;;;;;0.77;100.00;99386.88;5293308;28;20046;-74
2023/03/09 06:42:47;;;;;;;96.28;43.55;;;;;;;0.64;100.00;99396.44;5290964;28;20478;-74
2023/03/09 06:45:20;;;;;;;93.93;44.05;;;;;;;0.71;100.00;99392.47;5283344;28;20093;-74
2023/03/09 06:47:56;;;;;;;90.32;41.25;;;;;;;0.71;100.00;99400.34;5287366;28;20020;-74
2023/03/09 06:50:28;;;;;;;86.25;40.67;;;;;;;0.70;100.00;99409.19;5281545;28;20035;-74
2023/03/09 06:52:59;;;;;;;93.82;42.42;;;;;;;0.67;100.00;99412.84;5297749;28;20028;-74
2023/03/09 06:55:31;;;;;;;90.10;42.50;;;;;;;0.70;100.00;99424.94;5294279;28;20039;-74
2023/03/09 06:58:02;;;;;;;92.30;42.63;;;;;;;0.76;100.00;99424.56;5271893;28;20022;-74
2023/03/09 07:00:40;;;;;;;90.13;41.30;;;;;;;0.72;100.00;99421.28;5284340;28;20413;-74
2023/03/09 07:03:15;;;;;;;88.70;40.45;;;;;;;0.75;100.00;99439.47;5289481;28;20138;-74
2023/03/09 07:05:47;;;;;;;89.60;40.72;;;;;;;0.83;100.00;99449.53;5288830;28;20125;-74
2023/03/09 07:08:18;;;;;;;88.82;41.38;;;;;;;0.85;100.00;99452.91;5288984;28;20066;-74
2023/03/09 07:10:49;;;;;;;99.80;42.40;;;;;;;0.84;100.00;99458.25;5287042;28;20043;-74
2023/03/09 07:13:21;;;;;;;87.28;40.38;;;;;;;0.93;100.00;99463.78;5289066;28;20077;-74
2023/03/09 07:15:52;;;;;;;88.38;39.85;;;;;;;0.77;100.00;99468.28;5286587;28;20052;-74
2023/03/09 07:18:23;;;;;;;92.20;40.92;;;;;;;0.78;100.00;99488.31;5286426;28;20032;-74
2023/03/09 07:20:58;;;;;;;84.07;39.83;;;;;;;0.75;100.00;99485.91;5287663;28;20039;-74
2023/03/09 07:23:31;;;;;;;95.75;42.65;;;;;;;0.71;100.00;99487.84;5288915;28;20016;-74
2023/03/09 07:26:04;;;;;;;93.23;40.60;;;;;;;0.74;100.00;99484.19;5285182;28;20133;-74
2023/03/09 07:28:36;;;;;;;93.40;42.28;;;;;;;0.70;100.00;99494.03;5287565;28;20321;-74
2023/03/09 07:31:09;;;;;;;94.95;41.28;;;;;;;0.67;100.00;99493.34;5286489;28;20156;-75
2023/03/09 07:33:40;;;;;;;92.97;40.90;;;;;;;0.68;100.00;99502.94;5284323;28;20036;-74
2023/03/09 07:36:11;;;;;;;96.68;40.70;;;;;;;0.66;100.00;99496.91;5286782;28;20382;-75
2023/03/09 07:38:42;;;;;;;93.18;41.63;;;;;;;0.65;100.00;99503.94;5287367;28;20032;-75
2023/03/09 07:41:14;;;;;;;89.60;39.97;;;;;;;0.63;100.00;99512.81;5281494;28;20036;-75
2023/03/09 07:43:45;;;;;;;94.32;40.20;;;;;;;0.67;100.00;99527.47;5283564;28;20028;-74
2023/03/09 07:46:17;;;;;;;89.38;38.47;;;;;;;0.73;100.00;99525.34;5279601;28;20088;-75
2023/03/09 07:48:49;;;;;;;87.80;39.15;;;;;;;0.71;100.00;99527.22;5283766;28;20032;-74
2023/03/09 07:51:21;;;;;;;93.68;40.42;;;;;;;0.83;100.00;99533.53;5285157;28;20032;-75
2023/03/09 07:53:52;;;;;;;92.55;39.42;;;;;;;0.82;100.00;99534.47;5283074;28;20032;-76
2023/03/09 07:56:24;;;;;;;91.28;39.15;;;;;;;0.92;100.00;99530.41;5282617;28;20031;-75
2023/03/09 07:58:55;;;;;;;87.22;38.33;;;;;;;0.92;100.00;99530.41;5287226;28;20042;-75
2023/03/09 08:01:27;;;;;;;91.00;39.15;;;;;;;0.94;100.00;99535.53;5283854;28;20032;-75
2023/03/09 08:03:58;;;;;;;93.50;39.85;;;;;;;1.01;100.00;99531.63;5284415;28;20477;-74
2023/03/09 08:06:29;;;;;;;98.55;40.55;;;;;;;1.04;100.00;99535.88;5287072;28;20109;-75
2023/03/09 08:09:01;;;;;;;89.78;39.25;;;;;;;1.16;100.00;99545.66;5290831;28;20047;-74
2023/03/09 08:11:33;;;;;;;92.03;39.17;;;;;;;1.11;100.00;99552.94;5284101;28;20036;-75
2023/03/09 08:14:04;;;;;;;89.95;36.70;;;;;;;1.10;100.00;99546.03;5285401;28;20032;-75
2023/03/09 08:16:36;;;;;;;89.63;38.22;;;;;;;1.06;100.00;99547.97;5293657;28;20024;-75
2023/03/09 08:19:07;;;;;;;87.35;37.58;;;;;;;1.07;100.00;99561.94;5288331;28;20020;-74
2023/03/09 08:21:38;;;;;;;91.28;37.70;;;;;;;1.09;100.00;99573.22;5290173;28;20433;-75
2023/03/09 08:24:10;;;;;;;94.72;38.33;;;;;;;1.06;100.00;99574.25;5290005;28;20107;-75
2023/03/09 08:26:42;;;;;;;84.72;34.95;;;;;;;1.09;100.00;99562.69;5288179;28;20048;-74
2023/03/09 08:29:13;;;;;;;86.03;37.30;;;;;;;1.09;100.00;99562.69;5291550;28;20025;-74
2023/03/09 08:31:45;;;;;;;84.28;37.47;;;;;;;1.17;100.00;99563.13;5289847;28;20508;-74
2023/03/09 08:34:18;;;;;;;92.00;38.72;;;;;;;1.24;100.00;99577.56;5286271;28;20033;-75
2023/03/09 08:36:49;;;;;;;88.68;37.13;;;;;;;1.27;100.00;99582.66;5291394;28;20034;-75
2023/03/09 08:39:21;;;;;;;84.40;37.88;;;;;;;1.31;100.00;99592.06;5290746;28;20028;-74
2023/03/09 08:41:52;;;;;;;89.82;35.78;;;;;;;1.25;100.00;99589.78;5289733;28;20036;-75
2023/03/09 08:44:23;;;;;;;84.57;36.90;;;;;;;1.24;100.00;99595.97;5292391;28;20039;-75
2023/03/09 08:46:55;;;;;;;88.38;37.65;;;;;;;1.25;100.00;99594.19;5292092;28;20036;-75
2023/03/09 08:49:26;;;;;;;90.28;38.03;;;;;;;1.28;100.00;99594.00;5290763;28;20085;-75
2023/03/09 08:51:57;;;;;;;85.55;36.03;;;;;;;1.32;100.00;99595.50;5293292;28;20032;-75
2023/03/09 08:54:28;;;;;;;86.72;38.13;;;;;;;1.47;100.00;99613.00;5290781;28;20021;-76
2023/03/09 08:57:00;;;;;;;78.93;35.17;;;;;;;1.46;100.00;99619.22;5287455;28;20478;-75
2023/03/09 08:59:31;;;;;;;88.18;36.20;;;;;;;1.39;100.00;99622.28;5293988;28;20513;-75
2023/03/09 09:02:03;;;;;;;80.68;36.50;;;;;;;1.49;100.00;99624.28;5294169;28;20032;-75
2023/03/09 09:04:34;;;;;;;87.30;36.75;;;;;;;1.42;100.00;99620.34;5288978;28;20125;-75
2023/03/09 09:07:05;;;;;;;84.72;36.58;;;;;;;1.42;100.00;99629.97;5293791;28;20028;-75
2023/03/09 09:09:38;;;;;;;85.30;35.35;;;;;;;1.52;100.00;99637.25;5293204;28;20450;-76
2023/03/09 09:12:10;;;;;;;81.97;35.95;;;;;;;1.61;100.00;99638.50;5292614;28;21029;-76
2023/03/09 09:14:42;;;;;;;82.70;36.35;;;;;;;1.55;100.00;99649.34;5289514;28;20036;-77
2023/03/09 09:17:13;;;;;;;81.28;35.80;;;;;;;1.55;100.00;99646.72;5292385;28;20402;-76
2023/03/09 09:19:45;;;;;;;85.63;35.72;;;;;;;1.56;100.00;99653.69;5294925;28;20031;-75
2023/03/09 09:22:16;;;;;;;80.40;35.30;;;;;;;1.64;100.00;99635.69;5294513;28;20023;-76
2023/03/09 09:24:47;;;;;;;78.80;34.55;;;;;;;1.64;100.00;99624.31;5293796;28;20031;-75
2023/03/09 09:27:19;;;;;;;79.70;35.05;;;;;;;1.82;100.00;99636.34;5290018;28;20467;-75
2023/03/09 09:29:52;;;;;;;78.05;32.63;;;;;;;1.84;100.00;99634.50;5295279;28;20810;-75
2023/03/09 09:32:23;;;;;;;81.00;35.45;;;;;;;1.81;100.00;99639.09;5293028;28;20543;-75
2023/03/09 09:34:55;;;;;;;80.85;36.38;;;;;;;1.94;100.00;99646.16;5292731;28;20127;-76
2023/03/09 09:37:28;;;;;;;82.18;36.10;;;;;;;1.97;100.00;99650.38;5287428;28;20573;-76
2023/03/09 09:39:59;;;;;;;84.43;35.70;;;;;;;1.93;100.00;99659.41;5294273;28;20104;-75
2023/03/09 09:42:38;;;;;;;75.40;34.28;;;;;;;2.15;100.00;99661.59;5293595;28;20028;-75
2023/03/09 09:45:27;;;;;;;81.75;35.40;;;;;;;2.13;100.00;99659.06;5293564;28;20032;-75
2023/03/09 09:48:03;;;;;;;80.35;36.03;;;;;;;2.20;100.00;99658.69;5291138;28;20459;-76
2023/03/09 09:50:49;;;;;;;79.35;36.65;;;;;;;2.11;100.00;99666.19;5290906;28;20028;-75
2023/03/09 09:53:58;;;;;;;86.97;36.22;;;;;;;2.19;100.00;99660.47;5290846;28;20031;-76
2023/03/09 09:56:49;;;;;;;79.45;35.78;;;;;;;2.30;100.00;99659.78;5290155;28;20067;-75
2023/03/09 09:59:40;;;;;;;85.88;37.78;;;;;;;2.19;100.00;99659.59;5285966;28;20027;-76
2023/03/09 10:02:22;;;;;;;80.50;36.53;;;;;;;2.25;100.00;99667.97;5287378;28;20098;-75
2023/03/09 10:05:05;;;;;;;92.32;38.50;;;;;;;2.33;100.00;99668.34;5289586;28;20054;-76
2023/03/09 10:07:38;;;;;;;82.68;37.13;;;;;;;2.35;100.00;99663.84;5292743;28;20103;-76
2023/03/09 10:10:40;;;;;;;79.22;36.97;;;;;;;2.38;100.00;99668.09;5294071;28;20027;-75
2023/03/09 10:13:18;;;;;;;86.25;38.15;;;;;;;2.41;100.00;99667.88;5292019;28;20143;-75
2023/03/09 10:15:51;;;;;;;79.05;36.20;;;;;;;2.39;100.00;99668.94;5290786;28;20035;-76
2023/03/09 10:18:34;;;;;;;78.72;36.50;;;;;;;2.44;100.00;99666.88;5288327;28;20035;-75
2023/03/09 10:21:15;;;;;;;80.60;37.85;;;;;;;2.43;100.00;99671.25;5289615;28;20035;-77
2023/03/09 10:23:46;;;;;;;75.85;36.33;;;;;;;2.51;100.00;99671.66;5288165;28;20036;-76
2023/03/09 10:26:30;;;;;;;80.25;36.65;;;;;;;2.41;100.00;99664.41;5288387;28;20040;-71
2023/03/09 10:29:10;;;;;;;85.53;38.07;;;;;;;2.38;100.00;99662.81;5280932;28;20107;-71
2023/03/09 10:32:05;;;;;;;84.05;37.58;;;;;;;2.41;100.00;99659.97;5288935;28;20282;-65
2023/03/09 10:34:58;;;;;;;80.78;37.35;;;;;;;2.39;100.00;99653.97;5289639;28;20027;-67
2023/03/09 10:37:37;;;;;;;85.28;36.70;;;;;;;2.55;100.00;99660.00;5290677;28;20024;-65
2023/03/09 10:40:18;;;;;;;75.93;34.60;;;;;;;2.53;100.00;99661.00;5289253;28;20027;-67
2023/03/09 10:42:50;;;;;;;76.95;35.13;;;;;;;2.65;100.00;99652.34;5287889;28;20073;-67
2023/03/09 10:45:31;;;;;;;76.97;35.25;;;;;;;2.72;100.00;99660.69;5290511;28;20043;-67
2023/03/09 10:48:06;;;;;;;72.13;34.10;;;;;;;2.81;100.00;99660.13;5290672;28;20267;-76
2023/03/09 10:50:40;;;;;;;;;;;;;;;2.89;100.00;99670.16;5290048;28;20034;-76
2023/03/09 10:53:22;;;;;;;71.05;32.30;;;;;;;2.91;100.00;99673.56;5288091;28;19916;-76
2023/03/09 10:56:02;;;;;;;68.40;32.13;;;;;;;2.89;100.00;99667.53;5288906;28;20028;-76
2023/03/09 10:58:34;;;;;;;69.07;32.88;;;;;;;2.97;100.00;99653.88;5289964;28;20379;-77
2023/03/09 11:01:20;;;;;;;61.20;30.52;;;;;;;3.02;100.00;99667.63;5291048;28;20031;-76
2023/03/09 11:03:52;;;;;;;65.03;32.47;;;;;;;3.02;100.00;99657.06;5288879;28;20027;-76
2023/03/09 11:06:37;;;;;;;68.15;31.83;;;;;;;3.03;100.00;99662.25;5286564;28;20028;-77
2023/03/09 11:09:13;;;;;;;;;;;;;;;3.10;100.00;99665.31;5280980;28;20111;-77
2023/03/09 11:11:46;;;;;;;68.10;30.77;;;;;;;3.19;100.00;99664.72;5288664;28;19911;-76
2023/03/09 11:14:29;;;;;;;68.15;32.83;;;;;;;3.15;100.00;99663.25;5290958;28;20028;-77
2023/03/09 11:17:00;;;;;;;69.45;32.10;;;;;;;3.13;100.00;99671.25;5290725;28;20028;-76
2023/03/09 11:19:32;;;;;;;70.53;32.17;;;;;;;3.21;100.00;99665.47;5290668;28;20028;-76
2023/03/09 11:22:12;;;;;;;71.40;32.55;;;;;;;3.28;100.00;99660.63;5289760;28;20027;-76
2023/03/09 11:24:45;;;;;;;70.32;33.20;;;;;;;3.41;100.00;99656.25;5292231;28;20024;-74
2023/03/09 11:27:33;;;;;;;69.82;32.55;;;;;;;3.35;100.00;99646.13;5287322;28;20024;-77
2023/03/09 11:30:15;;;;;;;73.55;33.83;;;;;;;3.41;100.00;99655.41;5292652;28;20401;-78
2023/03/09 11:32:47;;;;;;;74.35;34.40;;;;;;;3.46;100.00;99655.97;5288077;28;20028;-77
2023/03/09 11:35:20;;;;;;;65.85;33.20;;;;;;;3.37;100.00;99648.66;5288022;28;20047;-77
2023/03/09 11:38:02;;;;;;;74.07;34.00;;;;;;;3.41;100.00;99656.25;5279834;28;20785;-76
2023/03/09 11:40:35;;;;;;;70.78;32.90;;;;;;;3.41;100.00;99644.88;5292196;28;20425;-76
2023/03/09 11:43:34;;;;;;;68.03;32.60;;;;;;;3.34;100.00;99645.28;5293108;28;20027;-76
2023/03/09 11:46:11;;;;;;;74.13;34.00;;;;;;;3.33;100.00;99654.13;5283257;28;20359;-76